createdAt,value
2019-03-21T00:00:30.034Z,102135.25
2019-03-21T00:02:56.687Z,102140.47
2019-03-21T00:05:27.159Z,102136.49
2019-03-21T00:07:53.914Z,102128.64
2019-03-21T00:10:26.256Z,102126.50
2019-03-21T00:12:52.971Z,102119.95
2019-03-21T00:15:25.456Z,102127.84
2019-03-21T00:17:56.567Z,102130.06
2019-03-21T00:20:23.190Z,102130.08
2019-03-21T00:22:49.793Z,102122.98
2019-03-21T00:25:21.081Z,102122.09
2019-03-21T00:27:47.897Z,102127.33
2019-03-21T00:30:18.691Z,102122.08
2019-03-21T00:32:45.848Z,102113.69
2019-03-21T00:35:13.457Z,102108.98
2019-03-21T00:37:40.466Z,102100.59
2019-03-21T00:40:14.040Z,102102.78
2019-03-21T00:42:40.899Z,102097.52
2019-03-21T00:45:13.717Z,102088.66
2019-03-21T00:47:40.825Z,102080.33
2019-03-21T00:50:12.935Z,102095.16
2019-03-21T00:52:39.676Z,102091.17
2019-03-21T00:55:11.082Z,102088.98
2019-03-21T00:58:15.216Z,102081.89
2019-03-21T01:00:46.702Z,102072.47
2019-03-21T01:03:13.716Z,102080.14
2019-03-21T01:05:41.575Z,102088.89
2019-03-21T01:08:08.442Z,102080.17
2019-03-21T01:10:35.018Z,102070.92
2019-03-21T01:13:01.891Z,102062.89
2019-03-21T01:15:28.539Z,102062.53
2019-03-21T01:17:55.106Z,102059.92
2019-03-21T01:20:21.801Z,102072.12
2019-03-21T01:22:49.576Z,102058.65
2019-03-21T01:25:19.986Z,102047.87
2019-03-21T01:27:47.805Z,102056.91
2019-03-21T01:30:18.331Z,102057.42
2019-03-21T01:32:44.943Z,102058.61
2019-03-21T01:35:11.633Z,102058.48
2019-03-21T01:37:38.188Z,102061.12
2019-03-21T01:40:10.572Z,102065.98
2019-03-21T01:42:37.260Z,102061.71
2019-03-21T01:45:09.624Z,102067.84
2019-03-21T01:47:36.260Z,102062.11
2019-03-21T01:50:08.630Z,102069.84
2019-03-21T01:52:38.052Z,102066.02
2019-03-21T01:55:09.223Z,102064.16
2019-03-21T01:57:36.711Z,102060.16
2019-03-21T02:00:09.045Z,102054.91
2019-03-21T02:02:35.669Z,102054.25
2019-03-21T02:05:06.756Z,102049.27
2019-03-21T02:07:33.392Z,102048.65
2019-03-21T02:10:01.370Z,102046.72
2019-03-21T02:12:28.154Z,102044.95
2019-03-21T02:14:54.820Z,102040.18
2019-03-21T02:17:21.391Z,102038.23
2019-03-21T02:19:48.070Z,102033.13
2019-03-21T02:22:14.738Z,102032.65
2019-03-21T02:24:41.344Z,102025.20
2019-03-21T02:27:07.994Z,102025.92
2019-03-21T02:29:34.564Z,102027.06
2019-03-21T02:32:01.090Z,102026.20
2019-03-21T02:34:27.686Z,102024.57
2019-03-21T02:36:54.247Z,102028.38
2019-03-21T02:39:20.867Z,102034.84
2019-03-21T02:41:47.506Z,102034.64
2019-03-21T02:44:14.334Z,102047.20
2019-03-21T02:46:40.939Z,102047.13
2019-03-21T02:49:07.538Z,102044.31
2019-03-21T02:51:34.130Z,102049.95
2019-03-21T02:54:00.687Z,102048.22
2019-03-21T02:57:23.491Z,102055.62
2019-03-21T02:59:50.100Z,102051.09
2019-03-21T03:02:16.731Z,102057.17
2019-03-21T03:04:43.299Z,102055.14
2019-03-21T03:07:09.984Z,102055.16
2019-03-21T03:09:37.731Z,102050.25
2019-03-21T03:12:04.407Z,102061.28
2019-03-21T03:14:30.974Z,102058.72
2019-03-21T03:16:57.552Z,102053.75
2019-03-21T03:19:24.148Z,102069.06
2019-03-21T03:21:50.689Z,102069.27
2019-03-21T03:24:18.160Z,102077.13
2019-03-21T03:26:44.770Z,102070.96
2019-03-21T03:29:11.424Z,102074.31
2019-03-21T03:31:38.002Z,102071.88
2019-03-21T03:34:04.565Z,102083.38
2019-03-21T03:36:31.167Z,102091.05
2019-03-21T03:38:58.317Z,102083.14
2019-03-21T03:41:25.148Z,102085.88
2019-03-21T03:43:52.069Z,102084.97
2019-03-21T03:46:18.951Z,102081.03
2019-03-21T03:48:45.533Z,102084.55
2019-03-21T03:52:08.497Z,102094.22
2019-03-21T03:54:35.252Z,102088.04
2019-03-21T03:57:01.998Z,102098.58
2019-03-21T03:59:28.733Z,102107.72
2019-03-21T04:01:55.739Z,102106.59
2019-03-21T04:04:25.947Z,102102.53
2019-03-21T04:06:52.904Z,102107.92
2019-03-21T04:09:19.914Z,102105.23
2019-03-21T04:11:46.651Z,102098.16
2019-03-21T04:14:13.459Z,102101.27
2019-03-21T04:16:40.092Z,102090.68
2019-03-21T04:19:06.711Z,102091.20
2019-03-21T04:21:33.302Z,102095.68
2019-03-21T04:24:00.284Z,102103.04
2019-03-21T04:26:32.546Z,102105.23
2019-03-21T04:28:59.129Z,102102.32
2019-03-21T04:31:25.806Z,102106.55
2019-03-21T04:33:57.522Z,102103.95
2019-03-21T04:36:24.172Z,102101.73
2019-03-21T04:38:50.739Z,102101.70
2019-03-21T04:41:17.450Z,102103.09
2019-03-21T04:43:44.018Z,102100.93
2019-03-21T04:46:10.564Z,102102.65
2019-03-21T04:48:37.216Z,102105.77
2019-03-21T04:51:03.889Z,102109.23
2019-03-21T04:53:30.452Z,102106.72
2019-03-21T04:55:57.139Z,102106.63
2019-03-21T04:58:25.199Z,102109.64
2019-03-21T05:00:56.712Z,102109.25
2019-03-21T05:03:27.429Z,102110.98
2019-03-21T05:05:54.294Z,102113.66
2019-03-21T05:08:20.840Z,102111.96
2019-03-21T05:10:47.464Z,102112.34
2019-03-21T05:13:14.118Z,102114.95
2019-03-21T05:15:45.733Z,102106.58
2019-03-21T05:18:19.234Z,102107.41
2019-03-21T05:20:46.072Z,102111.02
2019-03-21T05:23:12.648Z,102114.06
2019-03-21T05:25:39.235Z,102112.06
2019-03-21T05:28:05.934Z,102116.44
2019-03-21T05:30:36.342Z,102120.28
2019-03-21T05:33:03.172Z,102117.59
2019-03-21T05:35:29.786Z,102118.89
2019-03-21T05:37:56.450Z,102125.00
2019-03-21T05:40:23.430Z,102118.91
2019-03-21T05:42:55.805Z,102115.95
2019-03-21T05:45:23.257Z,102122.80
2019-03-21T05:47:49.835Z,102118.44
2019-03-21T05:50:16.725Z,102118.84
2019-03-21T05:52:43.439Z,102121.92
2019-03-21T05:55:11.404Z,102118.42
2019-03-21T05:57:38.179Z,102121.95
2019-03-21T06:00:10.489Z,102125.35
2019-03-21T06:02:37.200Z,102130.34
2019-03-21T06:05:05.426Z,102126.39
2019-03-21T06:07:37.858Z,102130.33
2019-03-21T06:10:10.164Z,102127.20
2019-03-21T06:12:40.781Z,102129.32
2019-03-21T06:15:28.973Z,102138.66
2019-03-21T06:18:01.299Z,102134.58
2019-03-21T06:20:33.693Z,102137.24
2019-03-21T06:23:06.060Z,102140.19
2019-03-21T06:25:36.530Z,102143.78
2019-03-21T06:28:03.103Z,102143.70
2019-03-21T06:30:29.711Z,102138.34
2019-03-21T06:32:56.410Z,102140.98
2019-03-21T06:35:23.240Z,102145.84
2019-03-21T06:37:50.229Z,102146.25
2019-03-21T06:40:17.140Z,102146.25
2019-03-21T06:42:43.688Z,102148.84
2019-03-21T06:45:10.611Z,102153.63
2019-03-21T06:47:37.197Z,102150.08
2019-03-21T06:50:05.829Z,102147.17
2019-03-21T06:52:32.507Z,102149.92
2019-03-21T06:54:59.906Z,102158.70
2019-03-21T06:57:27.095Z,102154.63
2019-03-21T06:59:53.678Z,102162.97
2019-03-21T07:02:21.342Z,102165.25
2019-03-21T07:04:47.961Z,102155.18
2019-03-21T07:07:14.600Z,102157.92
2019-03-21T07:09:41.179Z,102162.04
2019-03-21T07:12:08.037Z,102163.79
2019-03-21T07:14:34.699Z,102164.47
2019-03-21T07:17:02.958Z,102168.19
2019-03-21T07:19:30.637Z,102167.08
2019-03-21T07:21:57.196Z,102170.11
2019-03-21T07:24:23.835Z,102167.54
2019-03-21T07:26:50.607Z,102160.69
2019-03-21T07:29:17.359Z,102168.54
2019-03-21T07:31:43.937Z,102169.61
2019-03-21T07:34:10.548Z,102169.63
2019-03-21T07:36:37.967Z,102173.57
2019-03-21T07:39:06.447Z,102167.56
2019-03-21T07:41:33.068Z,102172.27
2019-03-21T07:43:59.729Z,102175.08
2019-03-21T07:46:26.434Z,102173.19
2019-03-21T07:48:53.163Z,102168.72
2019-03-21T07:51:20.687Z,102172.27
2019-03-21T07:53:47.259Z,102176.27
2019-03-21T07:56:13.849Z,102173.81
2019-03-21T07:58:40.413Z,102179.14
2019-03-21T08:01:07.173Z,102180.75
2019-03-21T08:03:34.362Z,102186.36
2019-03-21T08:06:01.365Z,102189.33
2019-03-21T08:08:27.986Z,102190.04
2019-03-21T08:10:55.856Z,102189.92
2019-03-21T08:13:22.406Z,102192.56
2019-03-21T08:15:48.982Z,102189.03
2019-03-21T08:18:16.704Z,102186.00
2019-03-21T08:20:43.521Z,102189.69
2019-03-21T08:23:11.950Z,102190.29
2019-03-21T08:25:38.575Z,102186.16
2019-03-21T08:28:05.297Z,102187.46
2019-03-21T08:30:34.557Z,102184.71
2019-03-21T08:33:03.444Z,102178.87
2019-03-21T08:35:30.491Z,102185.22
2019-03-21T08:37:57.157Z,102185.57
2019-03-21T08:40:24.465Z,102187.62
2019-03-21T08:42:51.161Z,102195.63
2019-03-21T08:45:17.765Z,102195.36
2019-03-21T08:47:44.584Z,102189.60
2019-03-21T08:50:12.674Z,102179.14
2019-03-21T08:52:39.790Z,102194.02
2019-03-21T08:55:07.935Z,102189.47
2019-03-21T08:57:34.524Z,102181.08
2019-03-21T09:00:01.506Z,102182.61
2019-03-21T09:02:28.157Z,102182.34
2019-03-21T09:04:55.007Z,102186.98
2019-03-21T09:07:21.565Z,102185.67
2019-03-21T09:11:03.327Z,102184.31
2019-03-21T09:13:30.110Z,102192.11
2019-03-21T09:15:56.712Z,102184.19
2019-03-21T09:18:23.281Z,102189.45
2019-03-21T09:20:49.833Z,102192.98
2019-03-21T09:23:16.417Z,102194.14
2019-03-21T09:25:43.196Z,102192.73
2019-03-21T09:28:09.863Z,102196.66
2019-03-21T09:30:36.541Z,102193.85
2019-03-21T09:33:03.454Z,102193.14
2019-03-21T09:35:30.079Z,102186.69
2019-03-21T09:37:56.768Z,102189.22
2019-03-21T09:40:23.335Z,102194.77
2019-03-21T09:42:50.154Z,102189.50
2019-03-21T09:45:16.904Z,102196.55
2019-03-21T09:47:43.524Z,102193.03
2019-03-21T09:50:15.896Z,102194.84
2019-03-21T09:52:42.471Z,102192.58
2019-03-21T09:55:09.350Z,102195.55
2019-03-21T09:57:35.937Z,102192.75
2019-03-21T10:00:06.821Z,102194.84
2019-03-21T10:02:33.598Z,102190.75
2019-03-21T10:05:00.327Z,102192.13
2019-03-21T10:07:27.170Z,102193.68
2019-03-21T10:12:41.166Z,102187.77
2019-03-21T10:15:08.263Z,102190.19
2019-03-21T10:17:34.925Z,102195.47
2019-03-21T10:20:04.999Z,102183.26
2019-03-21T10:22:34.717Z,102180.50
2019-03-21T10:25:01.393Z,102176.37
2019-03-21T10:27:28.086Z,102180.41
2019-03-21T10:29:54.654Z,102179.14
2019-03-21T10:32:21.209Z,102180.73
2019-03-21T10:34:47.869Z,102183.56
2019-03-21T10:37:14.543Z,102187.61
2019-03-21T10:39:44.307Z,102183.69
2019-03-21T10:42:11.088Z,102180.41
2019-03-21T10:44:37.746Z,102181.22
2019-03-21T10:47:04.539Z,102173.78
2019-03-21T10:49:31.093Z,102172.66
2019-03-21T10:51:57.667Z,102173.66
2019-03-21T10:54:24.234Z,102174.94
2019-03-21T10:56:52.181Z,102172.06
2019-03-21T10:59:18.827Z,102169.88
2019-03-21T11:01:45.602Z,102175.52
2019-03-21T11:04:12.136Z,102170.84
2019-03-21T11:06:38.723Z,102172.09
2019-03-21T11:09:06.526Z,102168.67
2019-03-21T11:11:33.192Z,102169.84
2019-03-21T11:13:59.746Z,102170.17
2019-03-21T11:16:26.758Z,102160.60
2019-03-21T11:18:53.617Z,102161.97
2019-03-21T11:21:23.190Z,102157.91
2019-03-21T11:23:49.792Z,102159.02
2019-03-21T11:26:16.412Z,102150.81
2019-03-21T11:28:43.038Z,102146.97
2019-03-21T11:31:09.590Z,102143.42
2019-03-21T11:33:36.167Z,102141.72
2019-03-21T11:36:03.055Z,102147.39
2019-03-21T11:38:29.672Z,102135.34
2019-03-21T11:40:56.672Z,102136.80
2019-03-21T11:43:23.772Z,102142.59
2019-03-21T11:45:50.631Z,102143.23
2019-03-21T11:48:17.662Z,102137.69
2019-03-21T11:50:44.858Z,102131.67
2019-03-21T11:53:11.908Z,102127.66
2019-03-21T11:55:38.916Z,102130.44
2019-03-21T11:58:05.892Z,102132.41
2019-03-21T12:00:42.709Z,102126.31
2019-03-21T12:03:04.258Z,102117.48
2019-03-21T12:05:32.137Z,102124.23
2019-03-21T12:07:59.261Z,102127.45
2019-03-21T12:10:26.418Z,102124.37
2019-03-21T12:12:53.609Z,102130.42
2019-03-21T12:15:20.591Z,102122.72
2019-03-21T12:17:47.459Z,102125.75
2019-03-21T12:20:20.293Z,102130.54
2019-03-21T12:22:47.548Z,102117.73
2019-03-21T12:25:15.753Z,102115.69
2019-03-21T12:27:45.714Z,102112.06
2019-03-21T12:30:18.447Z,102120.53
2019-03-21T12:32:45.563Z,102110.56
2019-03-21T12:35:14.642Z,102118.33
2019-03-21T12:37:41.904Z,102121.31
2019-03-21T12:40:09.143Z,102117.22
2019-03-21T12:42:36.164Z,102109.50
2019-03-21T12:45:07.779Z,102116.52
2019-03-21T12:47:35.684Z,102116.72
2019-03-21T12:50:06.750Z,102113.62
2019-03-21T12:52:41.407Z,102109.75
2019-03-21T12:55:06.699Z,102107.52
2019-03-21T12:57:35.224Z,102100.58
2019-03-21T13:00:07.979Z,102097.30
2019-03-21T13:02:34.969Z,102092.83
2019-03-21T13:05:06.219Z,102092.47
2019-03-21T13:07:33.500Z,102100.09
2019-03-21T13:10:00.457Z,102090.87
2019-03-21T13:12:27.772Z,102097.27
2019-03-21T13:14:54.736Z,102087.06
2019-03-21T13:17:21.764Z,102085.78
2019-03-21T13:19:48.742Z,102078.17
2019-03-21T13:22:15.717Z,102075.03
2019-03-21T13:24:42.722Z,102074.05
2019-03-21T13:27:09.698Z,102073.93
2019-03-21T13:29:36.590Z,102074.48
2019-03-21T13:32:03.645Z,102074.28
2019-03-21T13:34:30.660Z,102069.84
2019-03-21T13:36:57.574Z,102070.06
2019-03-21T13:39:24.885Z,102079.84
2019-03-21T13:41:51.955Z,102072.31
2019-03-21T13:44:18.865Z,102074.19
2019-03-21T13:46:45.896Z,102070.41
2019-03-21T13:49:12.763Z,102078.50
2019-03-21T13:51:39.845Z,102076.09
2019-03-21T13:54:08.737Z,102068.19
2019-03-21T13:56:38.269Z,102061.88
2019-03-21T13:59:04.603Z,102066.09
2019-03-21T14:01:31.465Z,102057.77
2019-03-21T14:03:58.479Z,102055.59
2019-03-21T14:07:21.615Z,102047.00
2019-03-21T14:09:48.602Z,102050.03
2019-03-21T14:12:15.655Z,102053.78
2019-03-21T14:14:42.644Z,102056.86
2019-03-21T14:17:21.370Z,102053.95
2019-03-21T14:19:39.085Z,102057.00
2019-03-21T14:22:06.178Z,102058.64
2019-03-21T14:24:33.047Z,102052.80
2019-03-21T14:27:00.054Z,102052.70
2019-03-21T14:29:27.110Z,102046.24
2019-03-21T14:31:54.231Z,102041.26
2019-03-21T14:34:21.343Z,102040.11
2019-03-21T14:36:48.257Z,102040.91
2019-03-21T14:39:15.141Z,102040.97
2019-03-21T14:41:42.038Z,102038.23
2019-03-21T14:44:08.906Z,102035.03
2019-03-21T14:46:35.834Z,102032.38
2019-03-21T14:49:03.127Z,102044.77
2019-03-21T14:51:30.188Z,102035.14
2019-03-21T14:53:57.229Z,102036.66
2019-03-21T14:56:24.332Z,102038.16
2019-03-21T14:58:51.255Z,102028.88
2019-03-21T15:01:18.457Z,102035.31
2019-03-21T15:03:45.384Z,102029.78
2019-03-21T15:06:15.262Z,102026.83
2019-03-21T15:08:42.175Z,102022.65
2019-03-21T15:11:17.057Z,102022.27
2019-03-21T15:13:38.207Z,102027.03
2019-03-21T15:16:05.355Z,102032.53
2019-03-21T15:18:32.258Z,102031.14
2019-03-21T15:20:59.132Z,102031.90
2019-03-21T15:23:26.194Z,102030.67
2019-03-21T15:25:54.166Z,102027.68
2019-03-21T15:28:21.301Z,102029.59
2019-03-21T15:30:48.560Z,102029.78
2019-03-21T15:33:16.853Z,102040.00
2019-03-21T15:35:43.890Z,102041.20
2019-03-21T15:38:11.467Z,102038.65
2019-03-21T15:40:38.526Z,102037.41
2019-03-21T15:43:05.718Z,102032.78
2019-03-21T15:45:32.908Z,102028.81
2019-03-21T15:48:00.035Z,102033.72
2019-03-21T15:50:31.148Z,102034.59
2019-03-21T15:52:58.385Z,102033.30
2019-03-21T15:55:25.920Z,102031.44
2019-03-21T15:57:52.835Z,102028.38
2019-03-21T16:00:25.837Z,102024.52
2019-03-21T16:02:53.129Z,102025.22
2019-03-21T16:05:20.516Z,102024.98
2019-03-21T16:07:47.440Z,102022.56
2019-03-21T16:10:14.410Z,102029.00
2019-03-21T16:12:42.897Z,102022.44
2019-03-21T16:15:10.355Z,102022.20
2019-03-21T16:17:37.397Z,102019.98
2019-03-21T16:20:06.509Z,102022.95
2019-03-21T16:22:34.015Z,102026.66
2019-03-21T16:25:03.182Z,102024.29
2019-03-21T16:27:30.189Z,102027.78
2019-03-21T16:29:57.151Z,102026.27
2019-03-21T16:32:24.577Z,102026.83
2019-03-21T16:34:53.397Z,102021.55
2019-03-21T16:38:16.811Z,102023.16
2019-03-21T16:40:44.272Z,102021.03
2019-03-21T16:43:11.269Z,102018.48
2019-03-21T16:45:38.283Z,102016.60
2019-03-21T16:48:05.415Z,102009.69
2019-03-21T16:50:34.562Z,102011.72
2019-03-21T16:53:02.479Z,102015.69
2019-03-21T16:55:29.974Z,102019.80
2019-03-21T16:57:56.923Z,102021.22
2019-03-21T17:00:24.509Z,102024.61
2019-03-21T17:02:53.568Z,102018.09
2019-03-21T17:05:22.596Z,102017.63
2019-03-21T17:07:50.069Z,102015.27
2019-03-21T17:10:17.328Z,102014.97
2019-03-21T17:12:46.499Z,102022.48
2019-03-21T17:15:14.101Z,102017.11
2019-03-21T17:17:41.338Z,102021.85
2019-03-21T17:20:11.508Z,102023.70
2019-03-21T17:22:38.411Z,102024.16
2019-03-21T17:25:07.597Z,102022.00
2019-03-21T17:27:34.302Z,102029.67
2019-03-21T17:30:01.195Z,102031.13
2019-03-21T17:32:28.662Z,102030.66
2019-03-21T17:34:55.919Z,102028.44
2019-03-21T17:37:22.554Z,102027.37
2019-03-21T17:39:49.357Z,102036.41
2019-03-21T17:42:16.500Z,102034.11
2019-03-21T17:44:43.199Z,102043.23
2019-03-21T17:47:09.823Z,102038.75
2019-03-21T17:49:36.509Z,102035.17
2019-03-21T17:52:03.407Z,102040.33
2019-03-21T17:54:41.087Z,102035.61
2019-03-21T17:56:59.253Z,102034.06
2019-03-21T17:59:26.161Z,102034.88
2019-03-21T18:01:53.545Z,102035.34
2019-03-21T18:04:20.417Z,102041.87
2019-03-21T18:06:47.084Z,102041.19
2019-03-21T18:09:13.649Z,102033.52
2019-03-21T18:11:40.456Z,102033.26
2019-03-21T18:14:07.087Z,102032.27
2019-03-21T18:16:34.135Z,102031.42
2019-03-21T18:19:00.989Z,102035.34
2019-03-21T18:21:27.716Z,102033.39
2019-03-21T18:23:54.542Z,102033.00
2019-03-21T18:26:21.376Z,102030.02
2019-03-21T18:28:48.153Z,102030.88
2019-03-21T18:31:16.068Z,102029.25
2019-03-21T18:33:42.790Z,102026.86
2019-03-21T18:36:09.388Z,102034.24
2019-03-21T18:38:36.062Z,102027.89
2019-03-21T18:41:03.356Z,102023.75
2019-03-21T18:43:29.957Z,102028.36
2019-03-21T18:45:56.760Z,102026.86
2019-03-21T18:48:23.338Z,102025.88
2019-03-21T18:50:50.266Z,102016.42
2019-03-21T18:53:16.932Z,102018.43
2019-03-21T18:55:44.475Z,102022.30
2019-03-21T18:58:14.023Z,102020.73
2019-03-21T19:00:40.868Z,102015.88
2019-03-21T19:03:07.498Z,102022.43
2019-03-21T19:05:34.051Z,102019.06
2019-03-21T19:08:00.858Z,102015.66
2019-03-21T19:10:27.557Z,102013.23
2019-03-21T19:12:54.460Z,102002.92
2019-03-21T19:15:21.127Z,102000.92
2019-03-21T19:17:47.797Z,102001.13
2019-03-21T19:20:17.510Z,101990.44
2019-03-21T19:22:44.533Z,101992.31
2019-03-21T19:25:18.422Z,101991.38
2019-03-21T19:27:40.855Z,101993.98
2019-03-21T19:30:12.476Z,101993.42
2019-03-21T19:32:39.049Z,101985.46
2019-03-21T19:35:06.561Z,101992.44
2019-03-21T19:37:33.789Z,101997.08
2019-03-21T19:40:00.589Z,101994.44
2019-03-21T19:42:27.217Z,102001.16
2019-03-21T19:44:55.789Z,102001.41
2019-03-21T19:47:29.886Z,102001.99
2019-03-21T19:49:51.237Z,102005.02
2019-03-21T19:52:17.844Z,102002.84
2019-03-21T19:54:44.541Z,102007.60
2019-03-21T19:57:11.133Z,101999.44
2019-03-21T19:59:40.560Z,102002.91
2019-03-21T20:02:06.436Z,101999.05
2019-03-21T20:04:33.227Z,102005.47
2019-03-21T20:06:59.903Z,101996.70
2019-03-21T20:09:26.641Z,101990.97
2019-03-21T20:11:53.412Z,101993.64
2019-03-21T20:14:21.960Z,101998.11
2019-03-21T20:16:48.786Z,101997.28
2019-03-21T20:19:15.578Z,101999.75
2019-03-21T20:21:47.736Z,102001.45
2019-03-21T20:24:10.716Z,102006.27
2019-03-21T20:26:37.350Z,102003.37
2019-03-21T20:29:04.082Z,102001.80
2019-03-21T20:31:30.839Z,102005.38
2019-03-21T20:33:57.384Z,102000.87
2019-03-21T20:36:26.996Z,102001.19
2019-03-21T20:38:53.652Z,101998.77
2019-03-21T20:41:20.243Z,101997.80
2019-03-21T20:43:46.840Z,101992.05
2019-03-21T20:46:13.562Z,101997.52
2019-03-21T20:48:42.121Z,101994.97
2019-03-21T20:51:08.838Z,101992.59
2019-03-21T20:53:35.517Z,101990.50
2019-03-21T20:56:02.299Z,101994.88
2019-03-21T20:58:29.093Z,101988.95
2019-03-21T21:00:55.852Z,101985.45
2019-03-21T21:03:22.434Z,101991.83
2019-03-21T21:05:49.160Z,101992.84
2019-03-21T21:08:15.724Z,101993.84
2019-03-21T21:10:42.292Z,101998.06
2019-03-21T21:13:09.109Z,102000.41
2019-03-21T21:15:37.615Z,102011.58
2019-03-21T21:18:04.412Z,102010.14
2019-03-21T21:20:31.071Z,102013.25
2019-03-21T21:22:57.598Z,102019.88
2019-03-21T21:25:24.430Z,102020.42
2019-03-21T21:27:51.344Z,102029.47
2019-03-21T21:30:20.271Z,102023.96
2019-03-21T21:32:47.233Z,102023.37
2019-03-21T21:35:14.271Z,102027.19
2019-03-21T21:37:41.072Z,102023.11
2019-03-21T21:40:10.042Z,102014.88
2019-03-21T21:42:36.810Z,102013.44
2019-03-21T21:45:08.414Z,102014.29
2019-03-21T21:47:37.173Z,102014.92
2019-03-21T21:50:09.192Z,102013.83
2019-03-21T21:52:41.877Z,102015.69
2019-03-21T21:55:07.100Z,102005.98
2019-03-21T21:57:33.879Z,102011.53
2019-03-21T22:00:00.482Z,102013.91
2019-03-21T22:02:27.208Z,102010.34
2019-03-21T22:04:53.899Z,102014.66
2019-03-21T22:07:20.462Z,102017.47
2019-03-21T22:09:47.123Z,102022.95
2019-03-21T22:12:13.834Z,102016.93
2019-03-21T22:14:40.652Z,102019.10
2019-03-21T22:17:07.485Z,102015.80
2019-03-21T22:19:34.082Z,102012.63
2019-03-21T22:22:00.802Z,102014.83
2019-03-21T22:24:27.595Z,102013.94
2019-03-21T22:26:54.182Z,102021.53
2019-03-21T22:29:20.728Z,102019.92
2019-03-21T22:31:47.768Z,102019.84
2019-03-21T22:34:14.489Z,102016.00
2019-03-21T22:36:49.229Z,102014.72
2019-03-21T22:39:09.751Z,102019.80
2019-03-21T22:41:36.440Z,102012.98
2019-03-21T22:44:03.362Z,102013.16
2019-03-21T22:46:29.954Z,101997.99
2019-03-21T22:48:56.534Z,102010.52
2019-03-21T22:51:23.273Z,102002.38
2019-03-21T22:53:50.020Z,102003.81
2019-03-21T22:56:16.618Z,102010.70
2019-03-21T22:58:43.256Z,102001.16
2019-03-21T23:01:10.298Z,101995.00
2019-03-21T23:03:37.145Z,102001.69
2019-03-21T23:06:03.856Z,101994.74
2019-03-21T23:08:30.427Z,101993.13
2019-03-21T23:10:59.013Z,102004.25
2019-03-21T23:13:26.468Z,101993.67
2019-03-21T23:15:53.671Z,101998.59
2019-03-21T23:18:20.379Z,101992.21
2019-03-21T23:20:47.205Z,101985.19
2019-03-21T23:23:13.784Z,101989.97
2019-03-21T23:25:40.393Z,101991.21
2019-03-21T23:28:07.410Z,101985.33
2019-03-21T23:30:35.185Z,101988.00
2019-03-21T23:33:01.895Z,101992.25
2019-03-21T23:35:28.761Z,101995.70
2019-03-21T23:37:55.339Z,101988.36
2019-03-21T23:40:21.996Z,101991.31
2019-03-21T23:42:48.587Z,101992.95
2019-03-21T23:45:15.571Z,102000.16
2019-03-21T23:47:42.756Z,101996.45
2019-03-21T23:50:13.169Z,101999.94
2019-03-21T23:52:41.294Z,101991.57
2019-03-21T23:55:09.225Z,101995.05
2019-03-21T23:57:35.954Z,101988.14
